Dannemora, New York
Current Conditions -  °F | °C
As of 10:21 AM on Sunday 21 Dec 2014 (Local Time) from KPBG Reporting Station
Haze Haze  
Wind Chill: 19°   Ceiling: 2900
Heat Index: 19°   Visibility: 3mi
Dew Point: 17°   Wind: 3mph
Humidity: 92%   Direction: 320°NW
Pressure: 30.38"   Gusts: NA
Location:  44.72°N, 73.72°W
Report Text: KPBG 211521Z AUTO 32003KT 3SM BR FEW013 OVC029 M07/M08 A3038 RMK AO2 T10721083
Loading
Personal Weather Stations






























Interactive Weather Map New forecast layout! Learn more

10-Day Weather Forecast

Advertisements
Track Severe Weather on mobile